Time;durP1;ratioP1;P1;durP2;ratioP2;P2;SDS_P1;SDS_P2;PMS_P1;PMS_P2;Temp;Humidity;BMP_temperature;BMP_pressure;BME280_temperature;BME280_humidity;BME280_pressure;Samples;Min_cycle;Max_cycle;Signal;HPM_P1;HPM_P2
2024/01/18 00:00:13;;;;;;;;;;;;;;;6.35;100.00;93179.66;10441883;28;2998;-66
2024/01/18 00:05:16;;;;;;;;;;;;;;;6.33;100.00;93173.84;10434727;28;3069;-67
2024/01/18 00:10:23;;;;;;;;;;;;;;;6.31;100.00;93176.81;10435473;28;2966;-66
2024/01/18 00:15:25;;;;;;;;;;;;;;;6.28;100.00;93182.75;10437353;28;2935;-67
2024/01/18 00:20:28;;;;;;;;;;;;;;;6.25;100.00;93186.06;10442621;28;2892;-67
2024/01/18 00:25:31;;;;;;;;;;;;;;;6.30;100.00;93185.13;10432925;28;3116;-67
2024/01/18 00:30:33;;;;;;;;;;;;;;;6.28;100.00;93193.44;10431411;28;3000;-67
2024/01/18 00:35:36;;;;;;;;;;;;;;;6.32;100.00;93189.06;10435275;28;2961;-66
2024/01/18 00:40:38;;;;;;;;;;;;;;;6.32;100.00;93194.41;10430819;28;2969;-66
2024/01/18 00:45:41;;;;;;;;;;;;;;;6.33;100.00;93195.97;10441226;28;3484;-67
2024/01/18 00:50:43;;;;;;;;;;;;;;;6.34;100.00;93197.53;10439952;28;3028;-67
2024/01/18 00:55:46;;;;;;;;;;;;;;;6.39;100.00;93204.63;10423403;28;2979;-67
2024/01/18 01:00:49;;;;;;;;;;;;;;;6.37;100.00;93210.28;10441627;28;2942;-66
2024/01/18 01:05:52;;;;;;;;;;;;;;;6.36;100.00;93211.38;10436371;28;2964;-65
2024/01/18 01:10:54;;;;;;;;;;;;;;;6.32;100.00;93210.41;10444394;28;2979;-67
2024/01/18 01:15:57;;;;;;;;;;;;;;;6.31;100.00;93203.50;10448613;28;2964;-66
2024/01/18 01:20:59;;;;;;;;;;;;;;;6.30;100.00;93209.94;10440631;28;3072;-67
2024/01/18 01:26:02;;;;;;;;;;;;;;;6.32;100.00;93213.06;10439750;28;3096;-66
2024/01/18 01:31:04;;;;;;;;;;;;;;;6.28;100.00;93214.78;10436368;28;3011;-67
2024/01/18 01:36:07;;;;;;;;;;;;;;;6.25;100.00;93211.97;10439551;28;3266;-67
2024/01/18 01:41:09;;;;;;;;;;;;;;;6.25;100.00;93219.97;10437184;28;3002;-67
2024/01/18 01:46:12;;;;;;;;;;;;;;;6.22;100.00;93218.69;10437105;28;3041;-67
2024/01/18 01:51:15;;;;;;;;;;;;;;;6.20;100.00;93216.31;10435520;28;2930;-67
2024/01/18 01:56:17;;;;;;;;;;;;;;;6.14;100.00;93208.78;10440862;28;2880;-66
2024/01/18 02:01:20;;;;;;;;;;;;;;;6.16;100.00;93214.56;10437190;28;2999;-66
2024/01/18 02:06:22;;;;;;;;;;;;;;;6.14;100.00;93206.09;10435857;28;2823;-66
2024/01/18 02:11:25;;;;;;;;;;;;;;;6.14;100.00;93208.78;10435365;28;3072;-66
2024/01/18 02:16:27;;;;;;;;;;;;;;;6.08;100.00;93210.00;10442067;28;2895;-65
2024/01/18 02:21:30;;;;;;;;;;;;;;;6.07;100.00;93211.09;10439038;28;2862;-65
2024/01/18 02:26:32;;;;;;;;;;;;;;;6.04;100.00;93214.38;10435789;28;3076;-67
2024/01/18 02:31:34;;;;;;;;;;;;;;;6.01;100.00;93193.66;10418528;28;2885;-66
2024/01/18 02:36:37;;;;;;;;;;;;;;;5.99;100.00;93193.97;10442504;28;2953;-66
2024/01/18 02:41:41;;;;;;;;;;;;;;;6.00;100.00;93200.88;10434438;28;3010;-68
2024/01/18 02:46:43;;;;;;;;;;;;;;;6.01;100.00;93193.66;10438136;28;3341;-66
2024/01/18 02:51:46;;;;;;;;;;;;;;;6.04;100.00;93190.38;10432714;28;3099;-65
2024/01/18 02:56:48;;;;;;;;;;;;;;;6.04;100.00;93199.16;10436711;28;3306;-67
2024/01/18 03:01:51;;;;;;;;;;;;;;;6.10;100.00;93191.81;10438024;28;2891;-68
2024/01/18 03:06:53;;;;;;;;;;;;;;;6.10;100.00;93202.47;10434524;28;3017;-67
2024/01/18 03:11:56;;;;;;;;;;;;;;;6.06;100.00;93198.88;10436427;28;2934;-67
2024/01/18 03:16:58;;;;;;;;;;;;;;;6.03;100.00;93202.13;10434729;28;3036;-69
2024/01/18 03:22:01;;;;;;;;;;;;;;;6.03;100.00;93194.91;10439586;28;3064;-67
2024/01/18 03:27:03;;;;;;;;;;;;;;;6.06;100.00;93190.88;10435676;28;2891;-66
2024/01/18 03:32:06;;;;;;;;;;;;;;;5.99;100.00;93193.19;10433155;28;3028;-66
2024/01/18 03:37:08;;;;;;;;;;;;;;;6.03;100.00;93196.78;10435881;28;2939;-67
2024/01/18 03:42:11;;;;;;;;;;;;;;;6.02;100.00;93192.56;10433539;28;3155;-67
2024/01/18 03:47:13;;;;;;;;;;;;;;;6.02;100.00;93189.91;10433004;28;2962;-65
2024/01/18 03:52:16;;;;;;;;;;;;;;;6.09;100.00;93191.00;10433200;28;3029;-65
2024/01/18 03:57:19;;;;;;;;;;;;;;;6.08;100.00;93188.66;10436718;28;2931;-65
2024/01/18 04:02:21;;;;;;;;;;;;;;;6.07;100.00;93179.88;10434562;28;2959;-66
2024/01/18 04:07:24;;;;;;;;;;;;;;;6.15;100.00;93183.66;10434147;28;3004;-65
2024/01/18 04:12:26;;;;;;;;;;;;;;;6.15;100.00;93202.34;10436010;28;2903;-66
2024/01/18 04:17:29;;;;;;;;;;;;;;;6.19;100.00;93197.97;10434753;28;3020;-66
2024/01/18 04:22:31;;;;;;;;;;;;;;;6.16;100.00;93201.25;10440052;28;2890;-66
2024/01/18 04:27:34;;;;;;;;;;;;;;;6.16;100.00;93196.69;10441966;28;2928;-64
2024/01/18 04:32:36;;;;;;;;;;;;;;;6.18;100.00;93199.06;10444510;28;2989;-66
2024/01/18 04:37:39;;;;;;;;;;;;;;;6.17;100.00;93194.81;10441116;28;2922;-70
2024/01/18 04:42:42;;;;;;;;;;;;;;;6.21;100.00;93190.44;10449006;28;3119;-68
2024/01/18 04:47:45;;;;;;;;;;;;;;;6.16;100.00;93186.03;10437813;28;2998;-66
2024/01/18 04:52:48;;;;;;;;;;;;;;;6.14;100.00;93192.78;10442935;28;3009;-71
2024/01/18 04:57:51;;;;;;;;;;;;;;;6.18;100.00;93183.06;10424913;28;2986;-65
2024/01/18 05:02:54;;;;;;;;;;;;;;;6.17;100.00;93197.47;10436358;28;3227;-68
2024/01/18 05:07:56;;;;;;;;;;;;;;;6.19;100.00;93189.97;10441749;28;3149;-65
2024/01/18 05:12:59;;;;;;;;;;;;;;;6.11;100.00;93185.41;10440178;28;3037;-65
2024/01/18 05:18:02;;;;;;;;;;;;;;;6.08;100.00;93183.31;10441693;28;2974;-66
2024/01/18 05:23:06;;;;;;;;;;;;;;;6.01;100.00;93197.09;10441318;28;2970;-68
2024/01/18 05:28:08;;;;;;;;;;;;;;;5.91;100.00;93194.69;10442560;28;3038;-66
2024/01/18 05:33:11;;;;;;;;;;;;;;;5.80;100.00;93190.72;10436335;28;2989;-65
2024/01/18 05:38:14;;;;;;;;;;;;;;;5.79;100.00;93197.94;10442005;28;2995;-65
2024/01/18 05:43:17;;;;;;;;;;;;;;;5.77;100.00;93197.44;10422777;28;2912;-66
2024/01/18 05:48:19;;;;;;;;;;;;;;;5.86;100.00;93206.28;10440140;28;2834;-67
2024/01/18 05:53:22;;;;;;;;;;;;;;;5.79;100.00;93203.25;10440061;28;3056;-66
2024/01/18 05:58:25;;;;;;;;;;;;;;;5.73;100.00;93203.69;10440613;28;3029;-66
2024/01/18 06:03:27;;;;;;;;;;;;;;;5.61;100.00;93206.94;10422198;28;3026;-66
2024/01/18 06:08:30;;;;;;;;;;;;;;;5.56;100.00;93204.38;10436689;28;2990;-68
2024/01/18 06:13:33;;;;;;;;;;;;;;;5.51;100.00;93207.16;10440065;28;2979;-66
2024/01/18 06:18:36;;;;;;;;;;;;;;;5.41;100.00;93198.34;10443889;28;2975;-67
2024/01/18 06:23:39;;;;;;;;;;;;;;;5.45;100.00;93190.50;10434349;28;2923;-66
2024/01/18 06:28:41;;;;;;;;;;;;;;;5.45;100.00;93187.06;10435698;28;2970;-67
2024/01/18 06:33:44;;;;;;;;;;;;;;;5.53;100.00;93196.97;10439366;28;3071;-67
2024/01/18 06:38:48;;;;;;;;;;;;;;;5.48;100.00;93191.78;10440284;28;3052;-66
2024/01/18 06:43:51;;;;;;;;;;;;;;;5.56;100.00;93189.19;10431728;28;3058;-65
2024/01/18 06:48:54;;;;;;;;;;;;;;;5.58;100.00;93192.31;10437388;28;3005;-66
2024/01/18 06:53:58;;;;;;;;;;;;;;;5.67;100.00;93179.06;10436151;28;3006;-67
2024/01/18 06:59:01;;;;;;;;;;;;;;;5.68;100.00;93183.28;10441455;28;2847;-71
2024/01/18 07:04:03;;;;;;;;;;;;;;;5.61;100.00;93199.72;10429326;28;2930;-66
2024/01/18 07:09:07;;;;;;;;;;;;;;;5.62;100.00;93198.63;10435858;28;3066;-67
2024/01/18 07:14:09;;;;;;;;;;;;;;;5.65;100.00;93194.53;10433680;28;2862;-65
2024/01/18 07:19:12;;;;;;;;;;;;;;;5.69;100.00;93184.84;10432711;28;2978;-71
2024/01/18 07:24:15;;;;;;;;;;;;;;;5.71;100.00;93180.00;10430741;28;3031;-68
2024/01/18 07:29:17;;;;;;;;;;;;;;;5.81;100.00;93176.28;10434896;28;2978;-65
2024/01/18 07:34:20;;;;;;;;;;;;;;;5.82;100.00;93175.97;10433244;28;3076;-67
2024/01/18 07:39:23;;;;;;;;;;;;;;;5.80;100.00;93172.84;10432760;28;2969;-66
2024/01/18 07:44:25;;;;;;;;;;;;;;;5.75;100.00;93167.63;10433268;28;3007;-67
2024/01/18 07:49:28;;;;;;;;;;;;;;;5.81;100.00;93169.09;10435597;28;2988;-66
2024/01/18 07:54:31;;;;;;;;;;;;;;;5.91;100.00;93165.38;10430235;28;3009;-71
2024/01/18 07:59:35;;;;;;;;;;;;;;;5.95;100.00;93169.78;10432567;28;2954;-65
2024/01/18 08:04:38;;;;;;;;;;;;;;;6.03;100.00;93167.47;10436411;28;2914;-69
2024/01/18 08:09:40;;;;;;;;;;;;;;;6.09;100.00;93172.34;10432945;28;2982;-66
2024/01/18 08:14:43;;;;;;;;;;;;;;;6.22;100.00;93170.66;10433805;28;2974;-68
2024/01/18 08:19:46;;;;;;;;;;;;;;;6.38;100.00;93166.47;10437388;28;2978;-70
2024/01/18 08:24:49;;;;;;;;;;;;;;;6.49;100.00;93173.09;10432972;28;3150;-68
2024/01/18 08:29:51;;;;;;;;;;;;;;;6.63;100.00;93169.50;10433765;28;3086;-71
2024/01/18 08:34:54;;;;;;;;;;;;;;;6.69;100.00;93166.38;10437782;28;3049;-67
2024/01/18 08:39:57;;;;;;;;;;;;;;;6.83;100.00;93160.91;10433950;28;3128;-70
2024/01/18 08:44:59;;;;;;;;;;;;;;;6.94;100.00;93158.72;10435008;28;2946;-75
2024/01/18 08:50:02;;;;;;;;;;;;;;;6.92;100.00;93169.69;10435142;28;2958;-69
2024/01/18 08:55:05;;;;;;;;;;;;;;;6.98;100.00;93168.44;10420282;28;3171;-72
2024/01/18 09:00:07;;;;;;;;;;;;;;;7.05;100.00;93165.28;10429764;28;2984;-68
2024/01/18 09:05:10;;;;;;;;;;;;;;;7.32;100.00;93167.66;10433641;28;2975;-73
2024/01/18 09:10:13;;;;;;;;;;;;;;;7.52;100.00;93170.75;10440610;28;2850;-69
2024/01/18 09:15:16;;;;;;;;;;;;;;;7.76;100.00;93179.03;10440533;28;2958;-68
2024/01/18 09:20:18;;;;;;;;;;;;;;;7.89;100.00;93185.31;10432884;28;2961;-68
2024/01/18 09:25:21;;;;;;;;;;;;;;;8.26;100.00;93185.63;10433699;28;2965;-71
2024/01/18 09:30:24;;;;;;;;;;;;;;;8.63;100.00;93192.88;10427707;28;3054;-69
2024/01/18 09:35:27;;;;;;;;;;;;;;;9.07;100.00;93211.34;10432061;28;3082;-68
2024/01/18 09:40:29;;;;;;;;;;;;;;;8.82;100.00;93215.75;10417006;28;3150;-68
2024/01/18 09:45:32;;;;;;;;;;;;;;;8.79;100.00;93221.78;10437882;28;3012;-68
2024/01/18 09:50:35;;;;;;;;;;;;;;;8.68;100.00;93209.88;10437799;28;3045;-68
2024/01/18 09:55:38;;;;;;;;;;;;;;;8.75;100.00;93215.50;10435369;28;2938;-68
2024/01/18 10:00:40;;;;;;;;;;;;;;;8.95;100.00;93220.09;10436787;28;2917;-67
2024/01/18 10:05:44;;;;;;;;;;;;;;;8.86;100.00;93211.34;10420489;28;3132;-68
2024/01/18 10:10:46;;;;;;;;;;;;;;;8.99;100.00;93210.31;10434479;28;3187;-67
2024/01/18 10:15:49;;;;;;;;;;;;;;;9.14;100.00;93201.69;10438531;28;3251;-66
2024/01/18 10:20:52;;;;;;;;;;;;;;;9.14;100.00;93199.00;10434095;28;3051;-66
2024/01/18 10:25:54;;;;;;;;;;;;;;;9.21;100.00;93198.47;10434949;28;3023;-67
2024/01/18 10:30:56;;;;;;;;;;;;;;;9.44;100.00;93182.84;10434749;28;3012;-67
2024/01/18 10:36:00;;;;;;;;;;;;;;;9.53;100.00;93186.22;10440804;28;2998;-66
2024/01/18 10:41:03;;;;;;;;;;;;;;;9.73;100.00;93172.00;10435836;28;3010;-67
2024/01/18 10:46:05;;;;;;;;;;;;;;;9.71;100.00;93160.81;10434947;28;2870;-67
2024/01/18 10:51:08;;;;;;;;;;;;;;;9.89;100.00;93166.78;10438325;28;3064;-67
2024/01/18 10:56:12;;;;;;;;;;;;;;;10.09;100.00;93170.50;10435118;28;2974;-67
2024/01/18 11:01:15;;;;;;;;;;;;;;;10.02;100.00;93164.91;10438884;28;2938;-68
2024/01/18 11:06:18;;;;;;;;;;;;;;;10.02;100.00;93167.59;10437146;28;2982;-68
2024/01/18 11:11:21;;;;;;;;;;;;;;;9.98;100.00;93163.97;10438351;28;3033;-69
2024/01/18 11:16:24;;;;;;;;;;;;;;;9.92;100.00;93176.03;10437805;28;2953;-69
2024/01/18 11:21:27;;;;;;;;;;;;;;;9.89;100.00;93177.50;10435957;28;3092;-69
2024/01/18 11:26:30;;;;;;;;;;;;;;;10.11;100.00;93162.09;10436847;28;3028;-69
2024/01/18 11:31:32;;;;;;;;;;;;;;;10.27;100.00;93137.00;10436020;28;3029;-67
2024/01/18 11:36:36;;;;;;;;;;;;;;;10.39;100.00;93140.81;10436195;28;3013;-66
2024/01/18 11:41:39;;;;;;;;;;;;;;;10.37;100.00;93143.03;10433357;28;3087;-74
2024/01/18 11:46:44;;;;;;;;;;;;;;;10.47;100.00;93142.59;10431303;28;3080;-74
2024/01/18 11:51:47;;;;;;;;;;;;;;;10.50;100.00;93145.38;10439768;28;2907;-71
2024/01/18 11:56:50;;;;;;;;;;;;;;;10.65;100.00;93146.59;10435766;28;2844;-69
2024/01/18 12:01:52;;;;;;;;;;;;;;;10.86;100.00;93142.97;10435660;28;3049;-69
2024/01/18 12:06:55;;;;;;;;;;;;;;;10.93;100.00;93143.97;10439439;28;2870;-69
2024/01/18 12:11:59;;;;;;;;;;;;;;;10.80;100.00;93143.22;10433770;28;3021;-69
2024/01/18 12:17:01;;;;;;;;;;;;;;;10.88;100.00;93130.78;10432460;28;3116;-68
2024/01/18 12:22:04;;;;;;;;;;;;;;;10.83;100.00;93139.09;10431838;28;2986;-70
2024/01/18 12:27:07;;;;;;;;;;;;;;;10.91;100.00;93134.69;10439253;28;2818;-68
2024/01/18 12:32:09;;;;;;;;;;;;;;;10.69;100.00;93142.13;10434020;28;3017;-68
2024/01/18 12:37:12;;;;;;;;;;;;;;;10.60;100.00;93136.06;10437190;28;3001;-67
2024/01/18 12:42:14;;;;;;;;;;;;;;;10.39;100.00;93146.16;10439369;28;3096;-71
2024/01/18 12:47:17;;;;;;;;;;;;;;;10.17;100.00;93148.13;10446217;28;2939;-70
2024/01/18 12:52:20;;;;;;;;;;;;;;;10.15;100.00;93158.44;10448849;28;3000;-70
2024/01/18 12:57:22;;;;;;;;;;;;;;;10.01;100.00;93152.59;10449655;28;2811;-68
2024/01/18 13:02:25;;;;;;;;;;;;;;;9.96;100.00;93144.75;10448087;28;2894;-72
2024/01/18 13:07:28;;;;;;;;;;;;;;;10.01;100.00;93152.59;10443668;28;3052;-68
2024/01/18 13:12:30;;;;;;;;;;;;;;;10.17;100.00;93150.81;10444426;28;3009;-69
2024/01/18 13:17:33;;;;;;;;;;;;;;;10.23;100.00;93164.84;10442261;28;3005;-70
2024/01/18 13:22:35;;;;;;;;;;;;;;;10.03;100.00;93166.47;10442303;28;2955;-68
2024/01/18 13:27:38;;;;;;;;;;;;;;;9.81;100.00;93185.66;10444097;28;2962;-69
2024/01/18 13:32:41;;;;;;;;;;;;;;;9.75;100.00;93190.44;10446549;28;2802;-68
2024/01/18 13:37:43;;;;;;;;;;;;;;;9.82;100.00;93188.00;10442995;28;3046;-68
2024/01/18 13:42:46;;;;;;;;;;;;;;;9.61;100.00;93198.00;10438450;28;2967;-68
2024/01/18 13:47:50;;;;;;;;;;;;;;;9.56;100.00;93211.59;10437858;28;2903;-68
2024/01/18 13:52:53;;;;;;;;;;;;;;;9.54;100.00;93217.28;10449431;28;2942;-66
2024/01/18 13:57:55;;;;;;;;;;;;;;;9.40;100.00;93214.09;10447076;28;2952;-66
2024/01/18 14:02:58;;;;;;;;;;;;;;;9.31;100.00;93254.38;10442946;28;3005;-68
2024/01/18 14:08:00;;;;;;;;;;;;;;;9.27;100.00;93258.03;10435287;28;2977;-68
2024/01/18 14:13:03;;;;;;;;;;;;;;;9.00;100.00;93276.19;10441306;28;2943;-68
2024/01/18 14:18:06;;;;;;;;;;;;;;;8.72;100.00;93326.75;10442758;28;3161;-70
2024/01/18 14:23:09;;;;;;;;;;;;;;;6.46;100.00;93387.22;10442378;28;3010;-66
2024/01/18 14:28:12;;;;;;;;;;;;;;;5.34;100.00;93396.97;10441033;28;2910;-68
2024/01/18 14:33:14;;;;;;;;;;;;;;;4.91;100.00;93407.16;10434021;28;2925;-66
2024/01/18 14:38:17;;;;;;;;;;;;;;;4.85;100.00;93428.56;10438568;28;3076;-65
2024/01/18 14:43:19;;;;;;;;;;;;;;;4.71;100.00;93451.72;10447359;28;3026;-68
2024/01/18 14:48:22;;;;;;;;;;;;;;;4.48;100.00;93465.94;10449369;28;3053;-69
2024/01/18 14:53:25;;;;;;;;;;;;;;;4.26;100.00;93493.94;10440911;28;3086;-68
2024/01/18 14:58:27;;;;;;;;;;;;;;;4.03;100.00;93510.78;10436944;28;2912;-67
2024/01/18 15:03:29;;;;;;;;;;;;;;;3.65;100.00;93521.38;10437394;28;3424;-68
2024/01/18 15:08:32;;;;;;;;;;;;;;;3.62;100.00;93548.50;10448305;28;3117;-66
2024/01/18 15:13:35;;;;;;;;;;;;;;;3.36;100.00;93560.47;10438914;28;2992;-67
2024/01/18 15:18:37;;;;;;;;;;;;;;;3.43;100.00;93585.63;10441692;28;2921;-65
2024/01/18 15:23:40;;;;;;;;;;;;;;;3.37;100.00;93612.50;10440018;28;3025;-68
2024/01/18 15:28:43;;;;;;;;;;;;;;;3.00;100.00;93637.03;10437903;28;3020;-67
2024/01/18 15:33:46;;;;;;;;;;;;;;;2.70;100.00;93665.38;10442732;28;2985;-67
2024/01/18 15:38:49;;;;;;;;;;;;;;;2.05;100.00;93707.09;10435950;28;2833;-66
2024/01/18 15:43:51;;;;;;;;;;;;;;;1.78;100.00;93715.34;10440145;28;2956;-66
2024/01/18 15:48:57;;;;;;;;;;;;;;;1.52;100.00;93738.44;10444877;28;2878;-66
2024/01/18 15:54:00;;;;;;;;;;;;;;;1.21;100.00;93754.38;10440345;28;2899;-66
2024/01/18 15:59:03;;;;;;;;;;;;;;;1.01;100.00;93781.56;10439482;28;2978;-65
2024/01/18 16:04:05;;;;;;;;;;;;;;;0.95;100.00;93811.72;10432066;28;3186;-67
2024/01/18 16:09:08;;;;;;;;;;;;;;;0.88;100.00;93845.56;10432567;28;2865;-66
2024/01/18 16:14:10;;;;;;;;;;;;;;;0.51;100.00;93864.22;10434860;28;3048;-65
2024/01/18 16:19:18;;;;;;;;;;;;;;;0.38;100.00;93865.47;10442562;28;2910;-67
2024/01/18 16:24:21;;;;;;;;;;;;;;;0.15;100.00;93900.22;10444656;28;2946;-68
2024/01/18 16:29:25;;;;;;;;;;;;;;;-0.03;100.00;93911.97;10441122;28;2955;-67
2024/01/18 16:34:33;;;;;;;;;;;;;;;-0.01;100.00;93931.00;10443130;28;2953;-74
2024/01/18 16:39:36;;;;;;;;;;;;;;;-0.02;100.00;93966.41;10440209;28;2973;-67
2024/01/18 16:44:38;;;;;;;;;;;;;;;-0.19;100.00;93992.94;10445490;28;2938;-67
2024/01/18 16:49:41;;;;;;;;;;;;;;;-0.23;100.00;94002.41;10447531;28;3012;-65
2024/01/18 16:54:43;;;;;;;;;;;;;;;-0.23;100.00;94015.59;10446194;28;2899;-68
2024/01/18 16:59:47;;;;;;;;;;;;;;;-0.21;100.00;94058.38;10441483;28;2954;-69
2024/01/18 17:04:50;;;;;;;;;;;;;;;-0.27;100.00;94070.75;10444590;28;2986;-67
2024/01/18 17:09:52;;;;;;;;;;;;;;;-0.29;100.00;94103.72;10440864;28;2857;-66
2024/01/18 17:14:56;;;;;;;;;;;;;;;-0.34;100.00;94112.38;10443464;28;3064;-67
2024/01/18 17:19:59;;;;;;;;;;;;;;;-0.42;100.00;94125.22;10444519;28;2950;-66
2024/01/18 17:25:01;;;;;;;;;;;;;;;-0.39;100.00;94145.84;10435878;28;2958;-73
2024/01/18 17:30:04;;;;;;;;;;;;;;;-0.64;100.00;94165.56;10440110;28;2962;-67
2024/01/18 17:35:06;;;;;;;;;;;;;;;-0.65;100.00;94187.72;10434487;28;2999;-66
2024/01/18 17:40:09;;;;;;;;;;;;;;;-0.76;100.00;94212.38;10438998;28;3025;-66
2024/01/18 17:45:12;;;;;;;;;;;;;;;-0.86;100.00;94242.03;10438609;28;2954;-65
2024/01/18 17:50:14;;;;;;;;;;;;;;;-0.73;100.00;94261.22;10443527;28;2900;-67
2024/01/18 17:55:17;;;;;;;;;;;;;;;-0.78;100.00;94269.06;10445828;28;3021;-67
2024/01/18 18:00:20;;;;;;;;;;;;;;;-0.77;100.00;94291.75;10444974;28;3049;-74
2024/01/18 18:05:34;;;;;;;;;;;;;;;-0.72;100.00;94297.13;10437946;28;2976;-67
2024/01/18 18:10:37;;;;;;;;;;;;;;;-0.71;100.00;94311.91;10438405;28;2895;-69
2024/01/18 18:15:39;;;;;;;;;;;;;;;-0.69;100.00;94317.78;10416542;28;3024;-68
2024/01/18 18:20:51;;;;;;;;;;;;;;;-0.77;100.00;94337.41;10438758;28;3014;-67
2024/01/18 18:25:54;;;;;;;;;;;;;;;-0.70;100.00;94361.84;10434120;28;2900;-67
2024/01/18 18:30:57;;;;;;;;;;;;;;;-0.78;100.00;94369.31;10436319;28;3056;-66
2024/01/18 18:36:00;;;;;;;;;;;;;;;-0.95;100.00;94391.19;10440587;28;2982;-68
2024/01/18 18:41:05;;;;;;;;;;;;;;;-0.92;100.00;94403.91;10438673;28;2809;-67
2024/01/18 18:46:08;;;;;;;;;;;;;;;-0.95;100.00;94433.41;10440308;28;2928;-69
2024/01/18 18:51:10;;;;;;;;;;;;;;;-0.95;100.00;94449.22;10445843;28;2981;-74
2024/01/18 18:56:13;;;;;;;;;;;;;;;-0.93;100.00;94467.47;10437302;28;2916;-71
2024/01/18 19:01:16;;;;;;;;;;;;;;;-1.00;100.00;94475.50;10435184;28;2965;-73
2024/01/18 19:06:18;;;;;;;;;;;;;;;-0.97;100.00;94497.97;10435885;28;2932;-69
2024/01/18 19:11:21;;;;;;;;;;;;;;;-0.97;100.00;94506.69;10432873;28;2958;-68
2024/01/18 19:16:24;;;;;;;;;;;;;;;-0.95;100.00;94517.81;10432238;28;2909;-67
2024/01/18 19:21:27;;;;;;;;;;;;;;;-0.87;100.00;94540.41;10438477;28;3064;-67
2024/01/18 19:26:30;;;;;;;;;;;;;;;-1.03;100.00;94549.00;10438627;28;3155;-67
2024/01/18 19:31:34;;;;;;;;;;;;;;;-1.19;100.00;94568.97;10441739;28;2891;-74
2024/01/18 19:36:37;;;;;;;;;;;;;;;-1.39;100.00;94570.13;10437251;28;3057;-68
2024/01/18 19:41:39;;;;;;;;;;;;;;;-1.56;100.00;94581.56;10439106;28;2835;-66
2024/01/18 19:46:41;;;;;;;;;;;;;;;-1.51;100.00;94602.78;10431358;28;3081;-67
2024/01/18 19:51:44;;;;;;;;;;;;;;;-1.60;100.00;94609.38;10439426;28;3170;-68
2024/01/18 19:56:47;;;;;;;;;;;;;;;-1.49;100.00;94616.50;10440147;28;2840;-66
2024/01/18 20:01:50;;;;;;;;;;;;;;;-1.55;100.00;94625.31;10433201;28;3095;-67
2024/01/18 20:06:52;;;;;;;;;;;;;;;-1.64;100.00;94630.94;10432363;28;2910;-70
2024/01/18 20:11:55;;;;;;;;;;;;;;;-1.57;100.00;94645.84;10433996;28;3008;-66
2024/01/18 20:16:58;;;;;;;;;;;;;;;-1.58;100.00;94660.06;10430125;28;2978;-74
2024/01/18 20:22:00;;;;;;;;;;;;;;;-1.61;100.00;94668.38;10437272;28;3052;-67
2024/01/18 20:27:03;;;;;;;;;;;;;;;-1.72;100.00;94691.84;10437560;28;3068;-68
2024/01/18 20:32:06;;;;;;;;;;;;;;;-1.59;100.00;94700.59;10436867;28;2917;-68
2024/01/18 20:37:10;;;;;;;;;;;;;;;-1.52;100.00;94701.31;10446304;28;2456;-71
2024/01/18 20:42:13;;;;;;;;;;;;;;;-1.48;100.00;94718.28;10448045;28;1979;-67
2024/01/18 20:47:16;;;;;;;;;;;;;;;-1.58;100.00;94726.72;10447796;28;2191;-68
2024/01/18 20:52:18;;;;;;;;;;;;;;;-1.65;100.00;94740.00;10431225;28;1452;-66
2024/01/18 20:57:21;;;;;;;;;;;;;;;-1.58;100.00;94749.66;10448892;28;1528;-66
2024/01/18 21:02:24;;;;;;;;;;;;;;;-1.61;100.00;94756.16;10456833;28;1975;-65
2024/01/18 21:07:26;;;;;;;;;;;;;;;-1.61;100.00;94769.31;10449689;28;1506;-67
2024/01/18 21:12:29;;;;;;;;;;;;;;;-1.50;100.00;94773.06;10458549;28;2926;-66
2024/01/18 21:17:31;;;;;;;;;;;;;;;-1.46;100.00;94790.03;10467830;28;1489;-68
2024/01/18 21:22:39;;;;;;;;;;;;;;;-1.52;100.00;94801.47;10461051;28;1918;-66
2024/01/18 21:27:41;;;;;;;;;;;;;;;-1.65;100.00;94805.88;10435726;28;2366;-67
2024/01/18 21:32:44;;;;;;;;;;;;;;;-1.68;100.00;94823.94;10454093;28;1441;-66
2024/01/18 21:37:47;;;;;;;;;;;;;;;-1.57;100.00;94835.59;10453707;28;2459;-66
2024/01/18 21:42:50;;;;;;;;;;;;;;;-1.61;100.00;94845.75;10454895;28;1973;-67
2024/01/18 21:47:52;;;;;;;;;;;;;;;-1.76;100.00;94854.03;10455197;28;1811;-66
2024/01/18 21:53:00;;;;;;;;;;;;;;;-1.55;100.00;94862.50;10449614;28;2846;-69
2024/01/18 21:58:03;;;;;;;;;;;;;;;-1.50;100.00;94867.94;10442607;28;2892;-68
2024/01/18 22:03:05;;;;;;;;;;;;;;;-1.47;100.00;94867.47;10443544;28;3139;-67
2024/01/18 22:08:08;;;;;;;;;;;;;;;-1.47;100.00;94888.56;10443188;28;3016;-69
2024/01/18 22:13:11;;;;;;;;;;;;;;;-1.73;100.00;94901.00;10437247;28;2837;-67
2024/01/18 22:18:13;;;;;;;;;;;;;;;-1.74;100.00;94896.75;10439604;28;3017;-66
2024/01/18 22:23:16;;;;;;;;;;;;;;;-1.73;100.00;94906.28;10438949;28;2989;-67
2024/01/18 22:28:19;;;;;;;;;;;;;;;-1.78;100.00;94898.25;10439521;28;2934;-66
2024/01/18 22:33:21;;;;;;;;;;;;;;;-1.77;100.00;94904.31;10439928;28;3210;-66
2024/01/18 22:38:24;;;;;;;;;;;;;;;-1.90;100.00;94923.69;10442046;28;2958;-66
2024/01/18 22:43:27;;;;;;;;;;;;;;;-2.01;100.00;94919.13;10439744;28;3361;-70
2024/01/18 22:48:29;;;;;;;;;;;;;;;-1.85;100.00;94938.81;10439696;28;2883;-66
2024/01/18 22:53:32;;;;;;;;;;;;;;;-1.97;100.00;94930.84;10436575;28;2914;-66
2024/01/18 22:58:36;;;;;;;;;;;;;;;-1.92;100.00;94930.97;10435134;28;3094;-66
2024/01/18 23:03:38;;;;;;;;;;;;;;;-1.98;100.00;94934.47;10440889;28;2899;-72
2024/01/18 23:08:41;;;;;;;;;;;;;;;-2.02;100.00;94941.22;10434379;28;2884;-66
2024/01/18 23:13:44;;;;;;;;;;;;;;;-2.10;100.00;94949.38;10437726;28;3061;-65
2024/01/18 23:18:46;;;;;;;;;;;;;;;-2.10;100.00;94946.72;10437845;28;3334;-66
2024/01/18 23:23:50;;;;;;;;;;;;;;;-1.98;100.00;94945.81;10416553;28;2932;-67
2024/01/18 23:28:52;;;;;;;;;;;;;;;-2.11;100.00;94945.94;10442027;28;2824;-68
2024/01/18 23:33:55;;;;;;;;;;;;;;;-2.18;100.00;94961.78;10437381;28;2971;-66
2024/01/18 23:38:58;;;;;;;;;;;;;;;-2.24;100.00;94972.34;10435642;28;3036;-68
2024/01/18 23:44:00;;;;;;;;;;;;;;;-2.29;100.00;94970.38;10434656;28;3286;-67
2024/01/18 23:49:03;;;;;;;;;;;;;;;-2.12;100.00;94975.91;10437692;28;2868;-67
2024/01/18 23:54:05;;;;;;;;;;;;;;;-2.01;100.00;94977.06;10435290;28;2958;-67
2024/01/18 23:59:08;;;;;;;;;;;;;;;-1.98;100.00;94989.78;10436454;28;2939;-72
